Lacassine, Louisiana
Current Conditions -  °F | °C
As of 12:45 PM on Thursday 23 Oct 2014 (Local Time) from KCWF Reporting Station
Broken Clouds Broken Clouds  
Wind Chill: 70°   Ceiling: 12000
Heat Index: 70°   Visibility: 10mi
Dew Point: 52°   Wind: 3mph
Humidity: 53%   Direction: NA
Pressure: 30.13"   Gusts: NA
Location:  30.24°N, 92.92°W
Report Text: KCWF 231745Z VRB03KT 10SM BKN120 21/11 A3013
Loading
Personal Weather Stations






























Interactive Weather Map
Tropical Storm Tracking
New forecast layout! Learn more

10-Day Weather Forecast

Advertisements
Track Severe Weather on mobile